Time;durP1;ratioP1;P1;durP2;ratioP2;P2;SDS_P1;SDS_P2;PMS_P1;PMS_P2;Temp;Humidity;BMP_temperature;BMP_pressure;BME280_temperature;BME280_humidity;BME280_pressure;Samples;Min_cycle;Max_cycle;Signal;HPM_P1;HPM_P2
2024/02/24 00:00:12;;;;;;;1.77;0.55;;;;;;;;;;1258874;23;20018;-74
2024/02/24 00:00:42;;;;;;;1.67;1.55;;;;;;;;;;1259135;23;20014;-74
2024/02/24 00:01:13;;;;;;;0.75;0.57;;;;;;;;;;1259265;23;20292;-74
2024/02/24 00:01:43;;;;;;;4.28;1.65;;;;;;;;;;1259091;23;20319;-74
2024/02/24 00:02:13;;;;;;;0.38;0.20;;;;;;;;;;1259027;23;20385;-74
2024/02/24 00:02:44;;;;;;;3.13;2.85;;;;;;;;;;1259201;23;20076;-74
2024/02/24 00:03:14;;;;;;;7.32;2.05;;;;;;;;;;1259075;23;20011;-74
2024/02/24 00:03:45;;;;;;;0.75;0.75;;;;;;;;;;1290362;23;20007;-74
2024/02/24 00:04:15;;;;;;;0.75;0.75;;;;;;;;;;1290198;23;20057;-74
2024/02/24 00:04:46;;;;;;;1.02;0.95;;;;;;;;;;1290531;23;20008;-74
2024/02/24 00:05:16;;;;;;;1.63;1.55;;;;;;;;;;1290015;23;20000;-74
2024/02/24 00:05:47;;;;;;;1.98;1.38;;;;;;;;;;1284159;23;20004;-74
2024/02/24 00:06:17;;;;;;;0.73;0.63;;;;;;;;;;1283441;23;19997;-74
2024/02/24 00:06:47;;;;;;;1.02;1.02;;;;;;;;;;1259234;23;20013;-74
2024/02/24 00:07:18;;;;;;;0.50;0.50;;;;;;;;;;1283497;23;20003;-74
2024/02/24 00:07:48;;;;;;;1.30;1.25;;;;;;;;;;1284224;23;20035;-74
2024/02/24 00:08:19;;;;;;;3.15;0.85;;;;;;;;;;1283763;23;20011;-74
2024/02/24 00:08:49;;;;;;;0.85;0.80;;;;;;;;;;1283720;23;20020;-75
2024/02/24 00:09:20;;;;;;;1.15;1.05;;;;;;;;;;1283762;23;20016;-74
2024/02/24 00:09:50;;;;;;;0.77;0.77;;;;;;;;;;1277917;23;20012;-75
2024/02/24 00:10:21;;;;;;;0.77;0.77;;;;;;;;;;1277621;23;20430;-74
2024/02/24 00:10:51;;;;;;;1.05;1.02;;;;;;;;;;1278158;23;20025;-74
2024/02/24 00:11:22;;;;;;;0.50;0.50;;;;;;;;;;1283344;23;20009;-74
2024/02/24 00:11:52;;;;;;;2.20;2.10;;;;;;;;;;1290270;23;20103;-74
2024/02/24 00:12:23;;;;;;;0.95;0.95;;;;;;;;;;1290179;23;20011;-74
2024/02/24 00:12:53;;;;;;;0.63;0.63;;;;;;;;;;1290244;23;19996;-74
2024/02/24 00:13:24;;;;;;;6.65;2.63;;;;;;;;;;1289862;23;20008;-74
2024/02/24 00:13:54;;;;;;;1.05;0.95;;;;;;;;;;1290282;23;20334;-74
2024/02/24 00:14:25;;;;;;;2.22;2.03;;;;;;;;;;1290090;23;20008;-74
2024/02/24 00:14:55;;;;;;;0.40;0.40;;;;;;;;;;1290554;23;20046;-75
2024/02/24 00:15:26;;;;;;;0.35;0.35;;;;;;;;;;1289683;23;20000;-74
2024/02/24 00:15:56;;;;;;;1.60;1.45;;;;;;;;;;1290348;23;20008;-74
2024/02/24 00:16:26;;;;;;;0.40;0.40;;;;;;;;;;1290321;23;20087;-74
2024/02/24 00:16:57;;;;;;;1.77;0.57;;;;;;;;;;1290413;23;20522;-74
2024/02/24 00:17:27;;;;;;;0.73;0.73;;;;;;;;;;1290047;23;20031;-74
2024/02/24 00:17:58;;;;;;;3.25;2.38;;;;;;;;;;1290431;23;20011;-75
2024/02/24 00:18:28;;;;;;;0.52;0.52;;;;;;;;;;1290044;23;20447;-75
2024/02/24 00:18:59;;;;;;;1.80;1.50;;;;;;;;;;1284111;23;20365;-75
2024/02/24 00:19:30;;;;;;;2.28;1.23;;;;;;;;;;1284247;23;20066;-74
2024/02/24 00:20:00;;;;;;;0.57;0.57;;;;;;;;;;1290427;23;20030;-74
2024/02/24 00:20:31;;;;;;;1.67;0.57;;;;;;;;;;1283205;23;20012;-75
2024/02/24 00:21:01;;;;;;;0.73;0.73;;;;;;;;;;1259372;23;20006;-75
2024/02/24 00:21:32;;;;;;;0.25;0.25;;;;;;;;;;1258932;23;20042;-75
2024/02/24 00:22:02;;;;;;;0.82;0.77;;;;;;;;;;1258660;23;20010;-75
2024/02/24 00:22:33;;;;;;;0.52;0.52;;;;;;;;;;1283695;23;20676;-75
2024/02/24 00:23:04;;;;;;;1.60;1.50;;;;;;;;;;1283909;23;20004;-74
2024/02/24 00:23:34;;;;;;;0.73;0.73;;;;;;;;;;1277748;23;20032;-74
2024/02/24 00:24:05;;;;;;;0.68;0.68;;;;;;;;;;1278141;23;20084;-74
2024/02/24 00:24:35;;;;;;;1.23;1.20;;;;;;;;;;1277692;23;20012;-75
2024/02/24 00:25:06;;;;;;;5.15;2.33;;;;;;;;;;1278178;23;20009;-75
2024/02/24 00:25:36;;;;;;;0.75;0.68;;;;;;;;;;1283864;23;20004;-74
2024/02/24 00:26:07;;;;;;;1.00;0.88;;;;;;;;;;1283933;23;20047;-74
2024/02/24 00:26:37;;;;;;;1.55;1.45;;;;;;;;;;1259056;23;20359;-74
2024/02/24 00:27:08;;;;;;;1.27;1.08;;;;;;;;;;1259091;23;20006;-74
2024/02/24 00:27:38;;;;;;;1.38;1.33;;;;;;;;;;1283963;23;20059;-74
2024/02/24 00:28:09;;;;;;;1.02;0.57;;;;;;;;;;1283941;23;20009;-74
2024/02/24 00:28:40;;;;;;;3.30;2.13;;;;;;;;;;1283859;23;20488;-74
2024/02/24 00:29:10;;;;;;;1.48;1.38;;;;;;;;;;1284146;23;20013;-74
2024/02/24 00:29:40;;;;;;;2.92;2.70;;;;;;;;;;1258627;23;20056;-75
2024/02/24 00:30:12;;;;;;;0.93;0.93;;;;;;;;;;1252802;23;20069;-75
2024/02/24 00:30:42;;;;;;;1.20;1.10;;;;;;;;;;1252665;23;20010;-75
2024/02/24 00:31:13;;;;;;;0.60;0.52;;;;;;;;;;1254237;23;20007;-75
2024/02/24 00:31:43;;;;;;;0.70;0.57;;;;;;;;;;1283876;23;20015;-75
2024/02/24 00:32:13;;;;;;;8.05;1.50;;;;;;;;;;1283338;23;20012;-75
2024/02/24 00:32:44;;;;;;;0.30;0.30;;;;;;;;;;1259451;23;20006;-75
2024/02/24 00:33:14;;;;;;;1.05;1.05;;;;;;;;;;1259117;23;20133;-75
2024/02/24 00:33:45;;;;;;;2.65;2.47;;;;;;;;;;1259255;23;20081;-75
2024/02/24 00:34:15;;;;;;;1.40;1.30;;;;;;;;;;1258875;23;20089;-75
2024/02/24 00:34:46;;;;;;;1.13;1.05;;;;;;;;;;1259380;23;20081;-75
2024/02/24 00:35:16;;;;;;;1.02;1.02;;;;;;;;;;1283659;23;20091;-75
2024/02/24 00:35:46;;;;;;;0.57;0.57;;;;;;;;;;1284360;23;20084;-75
2024/02/24 00:36:18;;;;;;;4.47;0.82;;;;;;;;;;1283893;23;20012;-75
2024/02/24 00:36:49;;;;;;;1.05;1.05;;;;;;;;;;1278382;23;20009;-75
2024/02/24 00:37:19;;;;;;;1.75;1.27;;;;;;;;;;1283537;23;20004;-75
2024/02/24 00:37:49;;;;;;;2.20;1.48;;;;;;;;;;1283893;23;20001;-75
2024/02/24 00:38:20;;;;;;;1.55;1.05;;;;;;;;;;1283870;23;20055;-75
2024/02/24 00:38:50;;;;;;;0.30;0.30;;;;;;;;;;1284332;23;20046;-75
2024/02/24 00:39:21;;;;;;;1.48;0.55;;;;;;;;;;1283882;23;20564;-74
2024/02/24 00:39:51;;;;;;;0.40;0.40;;;;;;;;;;1259330;23;20435;-75
2024/02/24 00:40:22;;;;;;;13.27;2.67;;;;;;;;;;1258925;23;20423;-75
2024/02/24 00:40:52;;;;;;;0.65;0.65;;;;;;;;;;1259254;23;20013;-75
2024/02/24 00:41:23;;;;;;;0.63;0.63;;;;;;;;;;1258860;23;20014;-76
2024/02/24 00:41:53;;;;;;;0.98;0.85;;;;;;;;;;1259265;23;20006;-75
2024/02/24 00:42:24;;;;;;;0.60;0.60;;;;;;;;;;1258803;23;20006;-75
2024/02/24 00:42:54;;;;;;;10.73;1.75;;;;;;;;;;1259362;23;20077;-75
2024/02/24 00:43:25;;;;;;;0.20;0.20;;;;;;;;;;1258974;23;20011;-76
2024/02/24 00:43:55;;;;;;;2.25;1.33;;;;;;;;;;1284156;23;20322;-75
2024/02/24 00:44:26;;;;;;;0.70;0.70;;;;;;;;;;1283763;23;20001;-75
2024/02/24 00:44:56;;;;;;;0.70;0.70;;;;;;;;;;1284279;23;20039;-75
2024/02/24 00:45:26;;;;;;;8.48;1.10;;;;;;;;;;1283702;23;20487;-75
2024/02/24 00:45:57;;;;;;;0.43;0.43;;;;;;;;;;1259182;23;20439;-75
2024/02/24 00:46:27;;;;;;;0.85;0.85;;;;;;;;;;1258870;23;20010;-75
2024/02/24 00:46:58;;;;;;;0.25;0.25;;;;;;;;;;1259203;23;20056;-75
2024/02/24 00:47:28;;;;;;;2.15;2.05;;;;;;;;;;1258770;23;20003;-75
2024/02/24 00:47:59;;;;;;;2.95;1.25;;;;;;;;;;1259229;23;20084;-75
2024/02/24 00:48:29;;;;;;;1.05;0.95;;;;;;;;;;1258918;23;20010;-76
2024/02/24 00:49:00;;;;;;;1.58;1.48;;;;;;;;;;1259111;23;20013;-76
2024/02/24 00:49:30;;;;;;;2.22;1.65;;;;;;;;;;1283885;23;20441;-76
2024/02/24 00:50:01;;;;;;;0.65;0.65;;;;;;;;;;1284116;23;20004;-75
2024/02/24 00:50:31;;;;;;;2.22;1.80;;;;;;;;;;1284029;23;20001;-75
2024/02/24 00:51:02;;;;;;;0.77;0.77;;;;;;;;;;1278032;23;20005;-76
2024/02/24 00:51:32;;;;;;;1.35;1.10;;;;;;;;;;1283981;23;20426;-75
2024/02/24 00:52:03;;;;;;;0.88;0.88;;;;;;;;;;1283894;23;20368;-75
2024/02/24 00:52:33;;;;;;;2.85;2.28;;;;;;;;;;1283098;23;20031;-75
2024/02/24 00:53:04;;;;;;;0.45;0.38;;;;;;;;;;1259221;23;20011;-75
2024/02/24 00:53:34;;;;;;;0.20;0.20;;;;;;;;;;1258894;23;20013;-76
2024/02/24 00:54:05;;;;;;;3.70;0.88;;;;;;;;;;1259030;23;20002;-76
2024/02/24 00:54:35;;;;;;;0.50;0.50;;;;;;;;;;1283893;23;20004;-76
2024/02/24 00:55:06;;;;;;;2.42;2.25;;;;;;;;;;1284250;23;20005;-75
2024/02/24 00:55:36;;;;;;;0.77;0.77;;;;;;;;;;1283936;23;20404;-75
2024/02/24 00:56:06;;;;;;;1.10;1.10;;;;;;;;;;1277744;23;20044;-75
2024/02/24 00:56:37;;;;;;;18.05;1.38;;;;;;;;;;1283995;23;20357;-75
2024/02/24 00:57:07;;;;;;;1.75;1.33;;;;;;;;;;1283889;23;20442;-75
2024/02/24 00:57:38;;;;;;;0.47;0.47;;;;;;;;;;1283639;23;20334;-75
2024/02/24 00:58:08;;;;;;;0.57;0.57;;;;;;;;;;1290350;23;20008;-75
2024/02/24 00:58:39;;;;;;;0.60;0.60;;;;;;;;;;1290321;23;20004;-76
2024/02/24 00:59:09;;;;;;;7.45;1.63;;;;;;;;;;1290275;23;20030;-76
2024/02/24 00:59:39;;;;;;;1.35;1.05;;;;;;;;;;1258850;23;20017;-75
2024/02/24 01:00:10;;;;;;;1.25;1.20;;;;;;;;;;1257372;23;20014;-75
2024/02/24 01:00:41;;;;;;;0.40;0.40;;;;;;;;;;1283135;23;20012;-75
2024/02/24 01:01:11;;;;;;;3.80;1.92;;;;;;;;;;1284379;23;20001;-75
2024/02/24 01:01:41;;;;;;;1.63;1.48;;;;;;;;;;1284324;23;20001;-75
2024/02/24 01:02:12;;;;;;;0.20;0.20;;;;;;;;;;1283768;23;20005;-76
2024/02/24 01:02:42;;;;;;;2.60;2.38;;;;;;;;;;1284167;23;20460;-75
2024/02/24 01:03:13;;;;;;;0.40;0.40;;;;;;;;;;1283188;23;20222;-76
2024/02/24 01:03:43;;;;;;;2.38;1.27;;;;;;;;;;1282973;23;20040;-75
2024/02/24 01:04:14;;;;;;;23.27;1.40;;;;;;;;;;1283460;23;20019;-75
2024/02/24 01:04:44;;;;;;;0.82;0.82;;;;;;;;;;1284043;23;20406;-75
2024/02/24 01:05:15;;;;;;;1.45;1.35;;;;;;;;;;1283968;23;20079;-75
2024/02/24 01:05:45;;;;;;;0.68;0.68;;;;;;;;;;1284025;23;20036;-75
2024/02/24 01:06:16;;;;;;;1.70;1.35;;;;;;;;;;1283364;23;20001;-75
2024/02/24 01:06:46;;;;;;;0.20;0.20;;;;;;;;;;1284069;23;20008;-75
2024/02/24 01:07:17;;;;;;;0.65;0.30;;;;;;;;;;1284016;23;20086;-75
2024/02/24 01:07:47;;;;;;;5.28;2.30;;;;;;;;;;1284367;23;20096;-76
2024/02/24 01:08:17;;;;;;;7.13;1.30;;;;;;;;;;1277606;23;20528;-75
2024/02/24 01:08:48;;;;;;;0.60;0.60;;;;;;;;;;1284301;23;20004;-75
2024/02/24 01:09:19;;;;;;;0.60;0.60;;;;;;;;;;1283905;23;20011;-75
2024/02/24 01:09:50;;;;;;;1.33;1.23;;;;;;;;;;1282876;23;20054;-76
2024/02/24 01:10:21;;;;;;;0.47;0.47;;;;;;;;;;1258604;23;20010;-76
2024/02/24 01:10:51;;;;;;;0.65;0.65;;;;;;;;;;1259486;23;20393;-75
2024/02/24 01:11:21;;;;;;;5.00;1.55;;;;;;;;;;1283890;23;20416;-76
2024/02/24 01:11:52;;;;;;;1.05;1.05;;;;;;;;;;1277789;23;20044;-75
2024/02/24 01:12:23;;;;;;;1.65;1.50;;;;;;;;;;1277869;23;20005;-75
2024/02/24 01:12:53;;;;;;;0.20;0.20;;;;;;;;;;1278430;23;19997;-75
2024/02/24 01:13:24;;;;;;;0.45;0.45;;;;;;;;;;1283363;23;20062;-75
2024/02/24 01:13:55;;;;;;;1.20;0.77;;;;;;;;;;1259155;23;20089;-75
2024/02/24 01:14:26;;;;;;;1.67;1.58;;;;;;;;;;1259081;23;20339;-76
2024/02/24 01:14:56;;;;;;;0.30;0.30;;;;;;;;;;1259507;23;20006;-75
2024/02/24 01:15:27;;;;;;;0.20;0.20;;;;;;;;;;1258777;23;19998;-75
2024/02/24 01:15:57;;;;;;;4.40;1.48;;;;;;;;;;1284101;23;20008;-75
2024/02/24 01:16:28;;;;;;;3.85;3.65;;;;;;;;;;1284097;23;20350;-75
2024/02/24 01:16:58;;;;;;;0.70;0.70;;;;;;;;;;1278309;23;20092;-75
2024/02/24 01:17:28;;;;;;;3.95;2.47;;;;;;;;;;1277610;23;20009;-75
2024/02/24 01:17:59;;;;;;;0.52;0.43;;;;;;;;;;1284082;23;20007;-76
2024/02/24 01:18:30;;;;;;;2.58;1.73;;;;;;;;;;1283383;23;20008;-76
2024/02/24 01:19:00;;;;;;;1.23;0.65;;;;;;;;;;1259352;23;20013;-75
2024/02/24 01:19:31;;;;;;;0.50;0.50;;;;;;;;;;1259234;23;20089;-75
2024/02/24 01:20:02;;;;;;;0.40;0.40;;;;;;;;;;1260195;22;20077;-75
2024/02/24 01:20:32;;;;;;;0.50;0.50;;;;;;;;;;1297027;22;20014;-76
2024/02/24 01:21:03;;;;;;;2.97;2.78;;;;;;;;;;1297459;22;20030;-75
2024/02/24 01:21:33;;;;;;;0.50;0.50;;;;;;;;;;1297029;22;20008;-75
2024/02/24 01:22:04;;;;;;;1.38;0.70;;;;;;;;;;1296409;22;20034;-76
2024/02/24 01:22:34;;;;;;;0.32;0.32;;;;;;;;;;1297257;22;20054;-75
2024/02/24 01:23:05;;;;;;;0.63;0.63;;;;;;;;;;1290262;23;20377;-75
2024/02/24 01:23:35;;;;;;;1.15;1.15;;;;;;;;;;1290584;23;20004;-75
2024/02/24 01:24:06;;;;;;;16.63;3.72;;;;;;;;;;1283989;23;20425;-75
2024/02/24 01:24:36;;;;;;;0.22;0.22;;;;;;;;;;1284384;23;20083;-75
2024/02/24 01:25:07;;;;;;;1.02;1.00;;;;;;;;;;1284089;23;20067;-75
2024/02/24 01:25:37;;;;;;;12.15;1.50;;;;;;;;;;1284026;23;20012;-75
2024/02/24 01:26:08;;;;;;;0.30;0.30;;;;;;;;;;1290528;23;20014;-75
2024/02/24 01:26:38;;;;;;;3.70;1.73;;;;;;;;;;1289676;22;20008;-76
2024/02/24 01:27:09;;;;;;;0.88;0.77;;;;;;;;;;1295578;22;20078;-76
2024/02/24 01:27:39;;;;;;;3.03;1.42;;;;;;;;;;1296793;22;20007;-75
2024/02/24 01:28:10;;;;;;;0.63;0.63;;;;;;;;;;1290182;23;20054;-75
2024/02/24 01:28:40;;;;;;;0.60;0.60;;;;;;;;;;1290573;23;20091;-75
2024/02/24 01:29:11;;;;;;;0.20;0.20;;;;;;;;;;1288940;23;20008;-75
2024/02/24 01:29:41;;;;;;;1.52;1.27;;;;;;;;;;1290209;22;20008;-75
2024/02/24 01:30:11;;;;;;;1.27;1.17;;;;;;;;;;1296925;22;20010;-75
2024/02/24 01:30:42;;;;;;;0.30;0.30;;;;;;;;;;1296577;22;20883;-75
2024/02/24 01:31:13;;;;;;;0.88;0.88;;;;;;;;;;1297156;22;20004;-75
2024/02/24 01:31:43;;;;;;;0.20;0.20;;;;;;;;;;1296872;22;20013;-76
2024/02/24 01:32:13;;;;;;;1.65;1.55;;;;;;;;;;1290045;23;20010;-76
2024/02/24 01:32:44;;;;;;;1.45;1.35;;;;;;;;;;1290443;23;20675;-75
2024/02/24 01:33:14;;;;;;;0.75;0.75;;;;;;;;;;1289650;23;20087;-75
2024/02/24 01:33:45;;;;;;;1.23;1.23;;;;;;;;;;1290440;22;20083;-75
2024/02/24 01:34:16;;;;;;;0.35;0.35;;;;;;;;;;1296482;22;20004;-76
2024/02/24 01:34:47;;;;;;;1.00;1.00;;;;;;;;;;1295076;22;20468;-76
2024/02/24 01:35:17;;;;;;;0.20;0.20;;;;;;;;;;1296328;22;20003;-75
2024/02/24 01:35:48;;;;;;;0.40;0.40;;;;;;;;;;1289890;23;20349;-75
2024/02/24 01:36:18;;;;;;;0.82;0.82;;;;;;;;;;1290147;23;20095;-75
2024/02/24 01:36:49;;;;;;;9.00;1.98;;;;;;;;;;1290453;23;20421;-76
2024/02/24 01:37:19;;;;;;;0.47;0.40;;;;;;;;;;1290033;22;20340;-75
2024/02/24 01:37:50;;;;;;;0.20;0.20;;;;;;;;;;1290264;23;20476;-76
2024/02/24 01:38:20;;;;;;;0.90;0.90;;;;;;;;;;1284211;23;20008;-75
2024/02/24 01:38:53;;;;;;;0.73;0.73;;;;;;;;;;1284142;23;20420;-75
2024/02/24 01:39:24;;;;;;;0.32;0.32;;;;;;;;;;1284331;23;20048;-76
2024/02/24 01:39:54;;;;;;;14.85;2.53;;;;;;;;;;1290208;23;20008;-76
2024/02/24 01:40:24;;;;;;;7.03;2.85;;;;;;;;;;1289634;23;20054;-75
2024/02/24 01:40:55;;;;;;;1.27;1.10;;;;;;;;;;1284294;23;20011;-75
2024/02/24 01:41:25;;;;;;;1.33;1.30;;;;;;;;;;1283875;23;20004;-75
2024/02/24 01:41:56;;;;;;;4.10;2.60;;;;;;;;;;1290479;23;20022;-75
2024/02/24 01:42:26;;;;;;;0.30;0.30;;;;;;;;;;1290332;23;20004;-75
2024/02/24 01:42:57;;;;;;;0.52;0.52;;;;;;;;;;1284252;23;20059;-75
2024/02/24 01:43:33;;;;;;;0.20;0.20;;;;;;;;;;1289167;23;20007;-75
2024/02/24 01:44:04;;;;;;;0.20;0.20;;;;;;;;;;1289745;23;20000;-75
2024/02/24 01:44:35;;;;;;;0.55;0.55;;;;;;;;;;1291285;22;20423;-75
2024/02/24 01:45:06;;;;;;;1.67;0.95;;;;;;;;;;1297159;22;20331;-75
2024/02/24 01:45:36;;;;;;;0.68;0.68;;;;;;;;;;1296725;22;20010;-75
2024/02/24 01:46:08;;;;;;;1.38;1.27;;;;;;;;;;1296472;22;20000;-75
2024/02/24 01:46:38;;;;;;;1.85;1.75;;;;;;;;;;1296396;22;20033;-75
2024/02/24 01:47:08;;;;;;;0.38;0.35;;;;;;;;;;1289198;23;20035;-75
2024/02/24 01:47:39;;;;;;;1.45;0.90;;;;;;;;;;1287892;23;20004;-75
2024/02/24 01:48:09;;;;;;;0.82;0.82;;;;;;;;;;1281646;23;20503;-75
2024/02/24 01:48:40;;;;;;;0.20;0.20;;;;;;;;;;1284216;23;20012;-75
2024/02/24 01:49:10;;;;;;;0.73;0.73;;;;;;;;;;1290294;23;20011;-75
2024/02/24 01:49:41;;;;;;;1.38;1.27;;;;;;;;;;1290460;22;20033;-75
2024/02/24 01:50:12;;;;;;;0.68;0.68;;;;;;;;;;1296781;22;20007;-75
2024/02/24 01:50:45;;;;;;;2.85;1.08;;;;;;;;;;1296512;22;20011;-75
2024/02/24 01:51:15;;;;;;;1.13;1.02;;;;;;;;;;1296476;22;20082;-75
2024/02/24 01:51:47;;;;;;;1.38;1.23;;;;;;;;;;1291166;23;20008;-75
2024/02/24 01:52:17;;;;;;;1.55;1.20;;;;;;;;;;1289838;23;20008;-75
2024/02/24 01:52:49;;;;;;;1.17;1.05;;;;;;;;;;1289847;23;20004;-75
2024/02/24 01:53:20;;;;;;;2.85;2.63;;;;;;;;;;1284156;23;20141;-75
2024/02/24 01:53:51;;;;;;;0.30;0.30;;;;;;;;;;1290409;23;20110;-75
2024/02/24 01:54:22;;;;;;;5.95;2.30;;;;;;;;;;1290682;22;20067;-75
2024/02/24 01:54:56;;;;;;;0.63;0.63;;;;;;;;;;1297088;22;20026;-75
2024/02/24 01:55:26;;;;;;;1.20;1.20;;;;;;;;;;1290256;23;20345;-75
2024/02/24 01:55:57;;;;;;;3.35;1.70;;;;;;;;;;1283878;23;20011;-75
2024/02/24 01:56:28;;;;;;;0.90;0.90;;;;;;;;;;1283843;23;20020;-75
2024/02/24 01:57:00;;;;;;;0.32;0.32;;;;;;;;;;1278117;23;20449;-75
2024/02/24 01:57:33;;;;;;;1.48;0.65;;;;;;;;;;1278263;23;20005;-75
2024/02/24 01:58:04;;;;;;;0.65;0.65;;;;;;;;;;1285021;23;20027;-75
2024/02/24 01:58:38;;;;;;;0.63;0.63;;;;;;;;;;1291599;22;20004;-75
2024/02/24 01:59:10;;;;;;;0.90;0.90;;;;;;;;;;1290059;23;20015;-75
2024/02/24 01:59:40;;;;;;;0.52;0.52;;;;;;;;;;1290357;23;20008;-75
2024/02/24 02:00:11;;;;;;;0.25;0.25;;;;;;;;;;1283542;23;20441;-75
2024/02/24 02:00:41;;;;;;;1.20;1.10;;;;;;;;;;1283765;23;20040;-75
2024/02/24 02:01:12;;;;;;;1.75;1.38;;;;;;;;;;1290403;23;20086;-75
2024/02/24 02:01:42;;;;;;;3.53;2.45;;;;;;;;;;1289769;23;20440;-75
2024/02/24 02:02:13;;;;;;;9.75;3.28;;;;;;;;;;1290288;23;20047;-75
2024/02/24 02:02:45;;;;;;;10.77;2.80;;;;;;;;;;1290616;23;20004;-75
2024/02/24 02:03:16;;;;;;;13.07;3.85;;;;;;;;;;1290697;22;20034;-75
2024/02/24 02:03:51;;;;;;;9.57;5.38;;;;;;;;;;1296600;22;20008;-75
2024/02/24 02:04:22;;;;;;;7.82;3.95;;;;;;;;;;1296450;22;20004;-75
2024/02/24 02:04:52;;;;;;;7.75;3.38;;;;;;;;;;1296945;22;20125;-75
2024/02/24 02:05:23;;;;;;;10.63;6.78;;;;;;;;;;1289952;23;20004;-75
2024/02/24 02:05:53;;;;;;;3.38;2.67;;;;;;;;;;1290505;23;20083;-75
2024/02/24 02:06:28;;;;;;;5.25;2.72;;;;;;;;;;1283841;23;20004;-75
2024/02/24 02:06:59;;;;;;;5.53;5.10;;;;;;;;;;1285315;23;20008;-75
2024/02/24 02:07:29;;;;;;;5.47;1.65;;;;;;;;;;1290063;23;20004;-75
2024/02/24 02:08:00;;;;;;;1.00;1.00;;;;;;;;;;1291521;22;20079;-75
2024/02/24 02:08:30;;;;;;;3.17;2.08;;;;;;;;;;1290222;23;20094;-75
2024/02/24 02:09:01;;;;;;;4.65;3.58;;;;;;;;;;1290456;23;20027;-75
2024/02/24 02:09:31;;;;;;;0.98;0.82;;;;;;;;;;1290220;23;20008;-75
2024/02/24 02:10:03;;;;;;;1.40;1.25;;;;;;;;;;1289997;22;20008;-75
2024/02/24 02:10:46;;;;;;;2.17;2.03;;;;;;;;;;1290135;23;20004;-74
2024/02/24 02:11:16;;;;;;;5.35;1.85;;;;;;;;;;1290064;23;20493;-74
2024/02/24 02:11:47;;;;;;;2.63;2.10;;;;;;;;;;1290122;23;20004;-74
2024/02/24 02:12:17;;;;;;;5.50;1.48;;;;;;;;;;1292887;22;20474;-75
2024/02/24 02:12:48;;;;;;;1.33;1.25;;;;;;;;;;1296910;22;20035;-74
2024/02/24 02:13:18;;;;;;;0.88;0.75;;;;;;;;;;1296494;22;20003;-74
2024/02/24 02:13:49;;;;;;;0.60;0.60;;;;;;;;;;1296850;22;20468;-74
2024/02/24 02:14:19;;;;;;;1.95;1.83;;;;;;;;;;1289999;23;20429;-74
2024/02/24 02:14:50;;;;;;;8.02;1.38;;;;;;;;;;1290180;23;20308;-74
2024/02/24 02:15:21;;;;;;;0.75;0.75;;;;;;;;;;1290125;23;20057;-74
2024/02/24 02:15:52;;;;;;;0.93;0.93;;;;;;;;;;1290532;22;20146;-74
2024/02/24 02:16:23;;;;;;;1.02;1.02;;;;;;;;;;1296589;22;20094;-74
2024/02/24 02:16:53;;;;;;;1.42;1.33;;;;;;;;;;1290495;23;20337;-74
2024/02/24 02:17:24;;;;;;;7.13;1.77;;;;;;;;;;1289154;23;20014;-74
2024/02/24 02:17:54;;;;;;;2.50;2.38;;;;;;;;;;1283944;23;20000;-74
2024/02/24 02:18:25;;;;;;;0.50;0.50;;;;;;;;;;1284058;23;20452;-74
2024/02/24 02:18:55;;;;;;;3.35;2.55;;;;;;;;;;1289630;23;20008;-75
2024/02/24 02:19:26;;;;;;;1.42;1.33;;;;;;;;;;1289785;22;20078;-75
2024/02/24 02:20:01;;;;;;;1.10;0.75;;;;;;;;;;1296997;22;20011;-75
2024/02/24 02:20:31;;;;;;;1.33;1.27;;;;;;;;;;1259733;23;20021;-74
2024/02/24 02:21:03;;;;;;;1.02;0.85;;;;;;;;;;1260896;23;20014;-75
2024/02/24 02:21:35;;;;;;;7.32;1.85;;;;;;;;;;1259596;23;20085;-75
2024/02/24 02:22:10;;;;;;;5.30;1.77;;;;;;;;;;1258261;23;20006;-75
2024/02/24 02:22:40;;;;;;;0.57;0.57;;;;;;;;;;1259110;23;20022;-75
2024/02/24 02:23:11;;;;;;;5.63;1.17;;;;;;;;;;1258865;23;20006;-74
2024/02/24 02:23:41;;;;;;;3.17;1.25;;;;;;;;;;1258600;23;20005;-75
2024/02/24 02:24:12;;;;;;;0.63;0.63;;;;;;;;;;1258387;23;20006;-74
2024/02/24 02:24:46;;;;;;;2.35;2.20;;;;;;;;;;1258382;23;20025;-75
2024/02/24 02:25:16;;;;;;;0.93;0.88;;;;;;;;;;1258818;23;20269;-75
2024/02/24 02:25:47;;;;;;;2.85;1.50;;;;;;;;;;1258939;23;20091;-75
2024/02/24 02:26:18;;;;;;;2.55;2.15;;;;;;;;;;1283732;23;20004;-74
2024/02/24 02:26:48;;;;;;;1.02;0.95;;;;;;;;;;1283968;23;20075;-75
2024/02/24 02:27:19;;;;;;;3.28;2.50;;;;;;;;;;1277268;23;20015;-74
2024/02/24 02:27:49;;;;;;;0.93;0.75;;;;;;;;;;1277829;23;20011;-74
2024/02/24 02:28:19;;;;;;;3.72;2.08;;;;;;;;;;1284057;23;20009;-74
2024/02/24 02:28:50;;;;;;;1.83;1.25;;;;;;;;;;1284144;23;20009;-74
2024/02/24 02:29:20;;;;;;;2.85;2.15;;;;;;;;;;1258652;23;20010;-74
2024/02/24 02:29:51;;;;;;;10.32;3.25;;;;;;;;;;1259028;23;20383;-75
2024/02/24 02:30:21;;;;;;;1.20;1.15;;;;;;;;;;1258469;23;20006;-74
2024/02/24 02:30:52;;;;;;;2.30;1.33;;;;;;;;;;1283948;23;19993;-75
2024/02/24 02:31:22;;;;;;;0.47;0.47;;;;;;;;;;1283765;23;20333;-74
2024/02/24 02:31:53;;;;;;;0.80;0.70;;;;;;;;;;1284157;23;20004;-75
2024/02/24 02:32:23;;;;;;;0.30;0.30;;;;;;;;;;1283305;23;20008;-75
2024/02/24 02:32:53;;;;;;;1.42;1.33;;;;;;;;;;1259318;23;19994;-75
2024/02/24 02:33:24;;;;;;;0.57;0.57;;;;;;;;;;1258555;23;20006;-75
2024/02/24 02:33:54;;;;;;;2.38;1.85;;;;;;;;;;1258990;23;20313;-75
2024/02/24 02:34:25;;;;;;;0.85;0.85;;;;;;;;;;1283826;23;20437;-75
2024/02/24 02:34:55;;;;;;;2.70;1.70;;;;;;;;;;1284279;23;20005;-75
2024/02/24 02:35:26;;;;;;;0.60;0.60;;;;;;;;;;1277326;23;20056;-74
2024/02/24 02:35:57;;;;;;;3.50;1.20;;;;;;;;;;1271848;23;20009;-74
2024/02/24 02:36:27;;;;;;;4.40;2.42;;;;;;;;;;1277386;23;20426;-74
2024/02/24 02:36:58;;;;;;;2.00;0.98;;;;;;;;;;1277833;23;20016;-75
2024/02/24 02:37:28;;;;;;;0.30;0.30;;;;;;;;;;1277044;23;20418;-75
2024/02/24 02:37:59;;;;;;;0.35;0.35;;;;;;;;;;1283738;23;20040;-74
2024/02/24 02:38:29;;;;;;;1.88;1.75;;;;;;;;;;1283952;23;20035;-74
2024/02/24 02:39:00;;;;;;;4.60;3.10;;;;;;;;;;1283503;23;20445;-75
2024/02/24 02:39:30;;;;;;;1.42;1.38;;;;;;;;;;1259022;23;20419;-75
2024/02/24 02:40:01;;;;;;;0.50;0.50;;;;;;;;;;1259274;23;20510;-74
2024/02/24 02:40:32;;;;;;;4.32;2.53;;;;;;;;;;1258717;23;20473;-75
2024/02/24 02:41:03;;;;;;;1.48;1.38;;;;;;;;;;1290172;23;20040;-75
2024/02/24 02:41:33;;;;;;;1.70;0.95;;;;;;;;;;1289465;23;19996;-74
2024/02/24 02:42:04;;;;;;;0.25;0.22;;;;;;;;;;1289787;23;20007;-75
2024/02/24 02:42:34;;;;;;;1.33;1.23;;;;;;;;;;1283655;23;20475;-77
2024/02/24 02:43:05;;;;;;;4.47;2.70;;;;;;;;;;1283910;23;20005;-75
2024/02/24 02:43:35;;;;;;;3.70;3.42;;;;;;;;;;1283696;23;19996;-75
2024/02/24 02:44:06;;;;;;;2.58;2.17;;;;;;;;;;1283652;23;20004;-75
2024/02/24 02:44:37;;;;;;;1.67;1.58;;;;;;;;;;1259211;23;20010;-74
2024/02/24 02:45:08;;;;;;;1.23;1.23;;;;;;;;;;1257361;23;19998;-75
2024/02/24 02:45:38;;;;;;;1.20;1.20;;;;;;;;;;1257714;23;20014;-75
2024/02/24 02:46:09;;;;;;;1.95;1.85;;;;;;;;;;1258313;23;20247;-75
2024/02/24 02:46:44;;;;;;;1.95;1.85;;;;;;;;;;1258587;23;20007;-75
2024/02/24 02:47:15;;;;;;;7.28;2.45;;;;;;;;;;1289360;23;20054;-75
2024/02/24 02:47:45;;;;;;;1.42;1.33;;;;;;;;;;1288993;23;20050;-75
2024/02/24 02:48:16;;;;;;;0.88;0.88;;;;;;;;;;1283242;23;20402;-75
2024/02/24 02:48:46;;;;;;;0.65;0.65;;;;;;;;;;1283547;23;20003;-75
2024/02/24 02:49:17;;;;;;;0.52;0.52;;;;;;;;;;1276830;23;20005;-75
2024/02/24 02:49:47;;;;;;;2.70;2.50;;;;;;;;;;1277456;23;19997;-75
2024/02/24 02:50:18;;;;;;;4.30;1.42;;;;;;;;;;1283362;23;20353;-74
2024/02/24 02:50:48;;;;;;;10.38;2.28;;;;;;;;;;1282326;23;20457;-75
2024/02/24 02:51:19;;;;;;;0.95;0.95;;;;;;;;;;1288501;23;20008;-75
2024/02/24 02:51:50;;;;;;;0.60;0.55;;;;;;;;;;1283617;23;20012;-75
2024/02/24 02:52:21;;;;;;;3.45;2.85;;;;;;;;;;1282953;23;20127;-75
2024/02/24 02:52:51;;;;;;;1.63;1.52;;;;;;;;;;1277667;23;20075;-75
2024/02/24 02:53:22;;;;;;;2.25;1.58;;;;;;;;;;1277414;23;20008;-75
2024/02/24 02:53:52;;;;;;;11.77;3.38;;;;;;;;;;1277873;23;20009;-75
2024/02/24 02:54:23;;;;;;;2.08;1.58;;;;;;;;;;1276660;23;20005;-75
2024/02/24 02:54:53;;;;;;;4.82;3.67;;;;;;;;;;1283644;23;20004;-75
2024/02/24 02:55:24;;;;;;;9.45;2.88;;;;;;;;;;1283072;23;20424;-75
2024/02/24 02:55:54;;;;;;;5.53;2.38;;;;;;;;;;1283586;23;20429;-74
2024/02/24 02:56:25;;;;;;;0.28;0.28;;;;;;;;;;1283225;23;20012;-75
2024/02/24 02:56:55;;;;;;;1.00;0.85;;;;;;;;;;1284988;23;20361;-75
2024/02/24 02:57:26;;;;;;;1.98;1.38;;;;;;;;;;1283147;23;20001;-75
2024/02/24 02:57:56;;;;;;;2.05;1.85;;;;;;;;;;1282580;23;20004;-75
2024/02/24 02:58:27;;;;;;;1.98;1.20;;;;;;;;;;1257913;23;20369;-74
2024/02/24 02:58:58;;;;;;;0.82;0.82;;;;;;;;;;1258247;23;20344;-75
2024/02/24 02:59:28;;;;;;;0.52;0.52;;;;;;;;;;1276552;23;20131;-75
2024/02/24 02:59:59;;;;;;;2.35;2.20;;;;;;;;;;1276989;23;20465;-75
2024/02/24 03:00:29;;;;;;;1.20;1.20;;;;;;;;;;1244537;23;20038;-75
2024/02/24 03:01:00;;;;;;;0.50;0.50;;;;;;;;;;1240794;23;20039;-75
2024/02/24 03:01:31;;;;;;;1.77;1.40;;;;;;;;;;1251716;23;20091;-75
2024/02/24 03:02:01;;;;;;;3.40;1.95;;;;;;;;;;1250983;23;20787;-75
2024/02/24 03:02:31;;;;;;;0.55;0.55;;;;;;;;;;1275688;23;20005;-75
2024/02/24 03:03:02;;;;;;;2.60;1.15;;;;;;;;;;1276241;23;20492;-75
2024/02/24 03:03:35;;;;;;;0.28;0.28;;;;;;;;;;1276646;23;20393;-75
2024/02/24 03:04:05;;;;;;;0.70;0.70;;;;;;;;;;1277882;23;20028;-75